Time;durP1;ratioP1;P1;durP2;ratioP2;P2;SDS_P1;SDS_P2;PMS_P1;PMS_P2;Temp;Humidity;BMP_temperature;BMP_pressure;BME280_temperature;BME280_humidity;BME280_pressure;Samples;Min_cycle;Max_cycle;Signal;HPM_P1;HPM_P2
2021/12/13 00:02:36;;;;;;;7.13;4.30;;;20.40;59.30;;;;;;4995760;28;20493;-60
2021/12/13 00:05:29;;;;;;;6.70;4.10;;;20.40;59.20;;;;;;4996852;28;20042;-60
2021/12/13 00:08:00;;;;;;;7.47;4.95;;;20.40;59.10;;;;;;4997120;28;20121;-60
2021/12/13 00:10:36;;;;;;;6.40;4.13;;;20.40;59.20;;;;;;4996828;28;20038;-60
2021/12/13 00:13:07;;;;;;;7.13;3.80;;;20.40;59.20;;;;;;4996763;28;20120;-60
2021/12/13 00:15:38;;;;;;;6.05;4.05;;;20.30;59.10;;;;;;4996158;28;20046;-60
2021/12/13 00:18:07;;;;;;;6.90;4.10;;;20.40;59.20;;;;;;4997265;28;20046;-60
2021/12/13 00:20:44;;;;;;;4.75;3.80;;;20.40;59.10;;;;;;4996380;28;20145;-60
2021/12/13 00:23:30;;;;;;;5.30;3.65;;;20.40;59.10;;;;;;4996662;28;20132;-60
2021/12/13 00:25:59;;;;;;;4.70;3.63;;;20.40;59.00;;;;;;4996377;28;20545;-60
2021/12/13 00:28:27;;;;;;;4.57;3.40;;;20.40;59.10;;;;;;4996220;28;20053;-60
2021/12/13 00:31:09;;;;;;;7.32;3.83;;;20.30;59.00;;;;;;4996333;28;20050;-60
2021/12/13 00:34:13;;;;;;;7.32;3.85;;;20.30;59.00;;;;;;4996480;28;20078;-60
2021/12/13 00:36:49;;;;;;;6.57;3.55;;;20.30;58.90;;;;;;4996285;28;20053;-60
2021/12/13 00:39:30;;;;;;;5.97;3.83;;;20.30;59.00;;;;;;4995955;28;20473;-60
2021/12/13 00:41:56;;;;;;;;;;;20.30;59.00;;;;;;4996650;28;20037;-60
2021/12/13 00:44:40;;;;;;;4.65;3.53;;;20.30;58.80;;;;;;4996130;28;19918;-60
2021/12/13 00:47:12;;;;;;;5.20;3.58;;;20.30;59.10;;;;;;4996101;28;20454;-60
2021/12/13 00:49:40;;;;;;;5.63;3.78;;;20.30;59.00;;;;;;4996674;28;20046;-60
2021/12/13 00:52:07;;;;;;;4.47;3.35;;;20.30;59.00;;;;;;4995944;28;20436;-60
2021/12/13 00:54:37;;;;;;;4.90;3.40;;;20.30;58.90;;;;;;4996230;28;20038;-61
2021/12/13 00:57:03;;;;;;;5.35;3.45;;;20.30;58.90;;;;;;4996413;28;20138;-60
2021/12/13 01:00:04;;;;;;;6.30;3.53;;;20.30;58.80;;;;;;4995921;28;20054;-60
2021/12/13 01:02:56;;;;;;;6.25;3.95;;;20.30;58.80;;;;;;4992091;28;20093;-60
2021/12/13 01:05:24;;;;;;;6.28;3.38;;;20.30;58.80;;;;;;4996257;28;20038;-60
2021/12/13 01:08:01;;;;;;;5.57;3.70;;;20.20;58.90;;;;;;4995791;28;20046;-60
2021/12/13 01:10:42;;;;;;;5.03;3.47;;;20.30;58.90;;;;;;4995725;28;20413;-60
2021/12/13 01:13:26;;;;;;;4.50;3.28;;;20.30;59.00;;;;;;4995609;28;20425;-60
2021/12/13 01:16:18;;;;;;;8.00;4.05;;;20.30;59.00;;;;;;4995635;28;20042;-60
2021/12/13 01:21:42;;;;;;;4.72;3.28;;;20.20;58.90;;;;;;4995809;28;20180;-60
2021/12/13 01:24:41;;;;;;;4.55;3.50;;;20.20;59.00;;;;;;4995448;28;20042;-59
2021/12/13 01:27:05;;;;;;;3.72;3.25;;;20.20;58.90;;;;;;4994854;28;20042;-60
2021/12/13 01:29:31;;;;;;;4.35;3.72;;;20.20;59.00;;;;;;4994063;28;20045;-60
2021/12/13 01:32:01;;;;;;;5.28;3.40;;;20.20;59.00;;;;;;4995219;28;20129;-60
2021/12/13 01:34:29;;;;;;;3.77;3.43;;;20.20;59.00;;;;;;4995190;28;20191;-60
2021/12/13 01:37:12;;;;;;;5.00;3.60;;;20.20;58.90;;;;;;4995649;28;20042;-60
2021/12/13 01:39:48;;;;;;;4.30;3.22;;;20.20;58.90;;;;;;4995728;28;20046;-60
2021/12/13 01:42:19;;;;;;;4.38;3.50;;;20.20;58.80;;;;;;4995063;28;20049;-60
2021/12/13 01:44:49;;;;;;;3.70;3.38;;;20.20;58.80;;;;;;4995027;28;20121;-60
2021/12/13 01:47:28;;;;;;;4.90;3.30;;;20.20;59.30;;;;;;4995399;28;20128;-60
2021/12/13 01:50:26;;;;;;;6.85;3.50;;;20.20;58.80;;;;;;4994917;28;20492;-60
2021/12/13 01:52:53;;;;;;;4.22;3.00;;;20.20;58.80;;;;;;4990380;28;20082;-60
2021/12/13 01:55:34;;;;;;;3.92;3.05;;;20.20;58.80;;;;;;4994123;28;20054;-60
2021/12/13 02:01:22;;;;;;;4.32;3.10;;;20.20;58.80;;;;;;4990152;28;20051;-60
2021/12/13 02:04:04;;;;;;;4.15;3.20;;;20.20;58.80;;;;;;4995248;28;20034;-60
2021/12/13 02:06:39;;;;;;;3.40;3.10;;;20.20;58.90;;;;;;4995168;28;20053;-61
2021/12/13 02:09:26;;;;;;;4.80;2.80;;;20.20;58.80;;;;;;4993697;28;20100;-60
2021/12/13 02:11:57;;;;;;;4.88;2.88;;;20.20;58.80;;;;;;4994895;28;20046;-60
2021/12/13 02:14:28;;;;;;;3.97;2.70;;;20.10;58.80;;;;;;4993244;28;20049;-60
2021/12/13 02:17:10;;;;;;;4.40;2.70;;;20.20;58.80;;;;;;4994561;28;20046;-60
2021/12/13 02:19:53;;;;;;;3.35;2.90;;;20.10;58.70;;;;;;4993743;28;20057;-60
2021/12/13 02:22:50;;;;;;;3.58;3.08;;;20.20;58.80;;;;;;4993460;28;20500;-60
2021/12/13 02:25:38;;;;;;;3.15;2.90;;;20.10;58.70;;;;;;4982390;28;20046;-60
2021/12/13 02:28:23;;;;;;;3.05;2.75;;;20.10;58.70;;;;;;4994658;28;20042;-60
2021/12/13 02:30:58;;;;;;;3.55;2.70;;;20.10;58.70;;;;;;4993697;28;20042;-60
2021/12/13 02:33:37;;;;;;;4.82;2.70;;;20.10;58.70;;;;;;4993955;28;20450;-60
2021/12/13 02:36:07;;;;;;;2.97;2.78;;;20.10;58.60;;;;;;4994973;28;20042;-60
2021/12/13 02:38:34;;;;;;;3.17;2.80;;;20.10;59.40;;;;;;4994572;28;20093;-60
2021/12/13 02:41:01;;;;;;;2.85;2.58;;;20.10;58.70;;;;;;4994237;28;20277;-60
2021/12/13 02:43:35;;;;;;;3.65;2.72;;;20.10;58.60;;;;;;4994238;28;20046;-60
2021/12/13 02:46:02;;;;;;;3.47;2.80;;;20.10;58.60;;;;;;4994711;28;20366;-60
2021/12/13 02:48:45;;;;;;;3.72;2.65;;;20.10;58.50;;;;;;4994112;28;20042;-60
2021/12/13 02:51:26;;;;;;;6.78;2.80;;;20.10;58.50;;;;;;4995022;28;20042;-60
2021/12/13 02:53:59;;;;;;;5.65;3.05;;;20.10;58.40;;;;;;4994681;28;20048;-60
2021/12/13 02:56:29;;;;;;;4.55;2.72;;;20.10;58.40;;;;;;4993849;28;20386;-60
2021/12/13 02:58:58;;;;;;;4.70;2.60;;;20.00;58.40;;;;;;4994043;28;20046;-60
2021/12/13 03:01:41;;;;;;;3.00;2.63;;;20.00;58.40;;;;;;4993837;28;20042;-60
2021/12/13 03:04:10;;;;;;;3.88;2.40;;;20.00;58.30;;;;;;4993791;28;20424;-60
2021/12/13 03:06:41;;;;;;;3.75;2.60;;;20.00;58.30;;;;;;4992820;28;20042;-60
2021/12/13 03:09:18;;;;;;;3.28;2.30;;;20.00;58.30;;;;;;4993875;28;20457;-60
2021/12/13 03:11:45;;;;;;;3.53;2.22;;;20.00;58.30;;;;;;4994504;28;20445;-60
2021/12/13 03:14:31;;;;;;;2.85;2.10;;;20.00;58.30;;;;;;4993787;28;20050;-60
2021/12/13 03:17:05;;;;;;;4.95;2.13;;;20.00;58.20;;;;;;4993280;28;20042;-60
2021/12/13 03:19:51;;;;;;;3.30;2.15;;;20.00;58.20;;;;;;4992435;28;20117;-59
2021/12/13 03:22:41;;;;;;;2.92;1.80;;;20.00;58.10;;;;;;4990176;28;20046;-59
2021/12/13 03:25:40;;;;;;;5.45;2.17;;;20.00;58.10;;;;;;4993812;28;20046;-60
2021/12/13 03:28:27;;;;;;;2.38;1.80;;;20.00;58.10;;;;;;4993835;28;20121;-60
2021/12/13 03:31:06;;;;;;;4.32;1.90;;;20.00;58.10;;;;;;4993828;28;20034;-60
2021/12/13 03:33:56;;;;;;;3.63;1.73;;;20.00;58.10;;;;;;4994307;28;20038;-60
2021/12/13 03:36:42;;;;;;;1.63;1.43;;;19.90;58.00;;;;;;4993862;28;20097;-60
2021/12/13 03:39:12;;;;;;;2.90;1.70;;;20.00;58.10;;;;;;4994288;28;20285;-60
2021/12/13 03:41:42;;;;;;;2.15;1.55;;;20.00;58.10;;;;;;4994368;28;20049;-60
2021/12/13 03:44:12;;;;;;;3.60;1.60;;;20.00;58.10;;;;;;4993755;28;20052;-60
2021/12/13 03:46:40;;;;;;;3.17;1.63;;;20.00;58.10;;;;;;4994194;28;20043;-60
2021/12/13 03:49:08;;;;;;;3.35;1.67;;;20.00;58.10;;;;;;4993698;28;20068;-60
2021/12/13 03:51:39;;;;;;;4.03;1.90;;;20.00;58.10;;;;;;4996261;28;20042;-60
2021/12/13 03:54:07;;;;;;;2.47;1.45;;;20.00;58.10;;;;;;4997629;28;20039;-60
2021/12/13 03:56:37;;;;;;;3.05;1.58;;;19.90;58.00;;;;;;4997043;28;20038;-60
2021/12/13 03:59:10;;;;;;;9.02;1.80;;;20.00;58.00;;;;;;4980074;28;20054;-61
2021/12/13 04:01:44;;;;;;;2.80;1.83;;;20.00;58.00;;;;;;4997016;28;20458;-60
2021/12/13 04:04:26;;;;;;;2.40;1.35;;;19.90;57.90;;;;;;4996989;28;20042;-60
2021/12/13 04:06:56;;;;;;;4.20;1.40;;;19.90;57.90;;;;;;4997386;28;20125;-60
2021/12/13 04:09:24;;;;;;;3.22;1.48;;;19.90;58.00;;;;;;4996796;28;20097;-60
2021/12/13 04:11:54;;;;;;;3.40;1.67;;;19.90;57.90;;;;;;4996687;28;20090;-60
2021/12/13 04:14:26;;;;;;;5.60;1.77;;;19.90;57.90;;;;;;4996549;28;20521;-60
2021/12/13 04:17:23;;;;;;;3.00;1.50;;;19.90;57.90;;;;;;4996718;28;20056;-60
2021/12/13 04:19:57;;;;;;;2.25;1.27;;;19.90;57.90;;;;;;4997122;28;20054;-60
2021/12/13 04:22:28;;;;;;;3.60;1.50;;;19.90;57.90;;;;;;4995402;28;20046;-60
2021/12/13 04:25:01;;;;;;;2.03;1.40;;;19.90;57.90;;;;;;4996178;28;20039;-60
2021/12/13 04:27:37;;;;;;;2.35;1.33;;;19.90;57.90;;;;;;4996161;28;20042;-60
2021/12/13 04:30:22;;;;;;;3.30;1.08;;;19.90;57.90;;;;;;4997272;28;20061;-60
2021/12/13 04:32:52;;;;;;;2.13;1.40;;;19.90;57.90;;;;;;4996974;28;20085;-60
2021/12/13 04:35:19;;;;;;;1.65;1.00;;;19.90;57.90;;;;;;4996910;28;20053;-60
2021/12/13 04:37:50;;;;;;;1.50;1.25;;;19.90;57.90;;;;;;4995554;28;20038;-60
2021/12/13 04:40:42;;;;;;;1.52;1.30;;;19.90;57.80;;;;;;4995993;28;20429;-60
2021/12/13 04:43:11;;;;;;;2.00;1.35;;;19.90;57.70;;;;;;4995415;28;20054;-60
2021/12/13 04:45:43;;;;;;;1.67;1.25;;;19.90;57.80;;;;;;4996051;28;20081;-60
2021/12/13 04:48:14;;;;;;;1.83;1.33;;;19.90;57.80;;;;;;4996684;28;20084;-60
2021/12/13 04:50:48;;;;;;;;;;;19.90;57.80;;;;;;4996227;28;20478;-60
2021/12/13 04:53:27;;;;;;;2.90;1.10;;;19.80;57.70;;;;;;4995975;28;19924;-60
2021/12/13 04:55:54;;;;;;;2.05;1.13;;;19.80;57.90;;;;;;4995692;28;20485;-60
2021/12/13 04:58:21;;;;;;;1.55;1.20;;;19.80;58.00;;;;;;4995940;28;20058;-60
2021/12/13 05:00:52;;;;;;;3.13;1.20;;;19.80;57.90;;;;;;4995727;28;20069;-61
2021/12/13 05:03:20;;;;;;;1.20;1.02;;;19.80;57.80;;;;;;4996175;28;20050;-60
2021/12/13 05:05:46;;;;;;;2.42;1.10;;;19.80;57.80;;;;;;4995634;28;20034;-60
2021/12/13 05:08:15;;;;;;;3.05;1.10;;;19.80;57.80;;;;;;4995736;28;20042;-60
2021/12/13 05:10:46;;;;;;;1.83;1.08;;;19.80;57.80;;;;;;4995691;28;20053;-60
2021/12/13 05:13:19;;;;;;;1.83;1.40;;;19.80;57.70;;;;;;4995655;28;20174;-60
2021/12/13 05:15:56;;;;;;;1.92;1.02;;;19.80;57.70;;;;;;4995519;28;20129;-60
2021/12/13 05:18:27;;;;;;;2.00;1.00;;;19.80;57.60;;;;;;4995583;28;20050;-60
2021/12/13 05:21:02;;;;;;;1.83;1.20;;;19.80;57.60;;;;;;4994526;28;20449;-60
2021/12/13 05:23:29;;;;;;;3.13;1.17;;;19.80;57.60;;;;;;4995412;28;20051;-60
2021/12/13 05:26:05;;;;;;;1.25;1.00;;;19.80;57.60;;;;;;4995764;28;20156;-61
2021/12/13 05:28:46;;;;;;;1.73;1.17;;;19.80;57.70;;;;;;4994945;28;20520;-60
2021/12/13 05:31:19;;;;;;;1.45;1.27;;;19.80;57.80;;;;;;4994934;28;20470;-61
2021/12/13 05:33:51;;;;;;;1.67;1.10;;;19.80;57.80;;;;;;4995103;28;20049;-61
2021/12/13 05:36:27;;;;;;;2.20;1.40;;;19.80;57.70;;;;;;4996087;28;20038;-61
2021/12/13 05:39:10;;;;;;;7.82;1.50;;;19.80;57.70;;;;;;4994877;28;20038;-60
2021/12/13 05:41:37;;;;;;;1.67;1.30;;;19.80;57.80;;;;;;4995536;28;20038;-60
2021/12/13 05:44:10;;;;;;;2.38;1.20;;;19.80;57.90;;;;;;4994861;28;20056;-60
2021/12/13 05:46:38;;;;;;;1.50;1.27;;;19.80;58.00;;;;;;4994808;28;20038;-60
2021/12/13 05:49:09;;;;;;;1.80;1.52;;;19.80;58.00;;;;;;4994607;28;20617;-60
2021/12/13 05:51:42;;;;;;;1.83;1.60;;;19.80;58.00;;;;;;4995383;28;20046;-60
2021/12/13 05:54:21;;;;;;;1.85;1.65;;;19.70;58.00;;;;;;4994724;28;20045;-60
2021/12/13 05:56:53;;;;;;;2.88;1.90;;;19.80;58.20;;;;;;4994736;28;20038;-60
2021/12/13 05:59:21;;;;;;;3.20;1.73;;;19.80;58.30;;;;;;4995248;28;20454;-46
2021/12/13 06:02:06;;;;;;;3.28;1.88;;;19.80;58.20;;;;;;4994580;28;20050;-48
2021/12/13 06:05:00;;;;;;;2.13;1.58;;;19.80;58.20;;;;;;4995230;28;20052;-59
2021/12/13 06:07:35;;;;;;;1.90;1.70;;;19.80;58.30;;;;;;4994537;28;20042;-61
2021/12/13 06:10:15;;;;;;;2.00;1.77;;;19.80;58.40;;;;;;4994173;28;20054;-61
2021/12/13 06:12:54;;;;;;;1.67;1.58;;;19.80;58.50;;;;;;4994826;28;20486;-60
2021/12/13 06:15:20;;;;;;;1.85;1.70;;;19.80;58.40;;;;;;4995063;28;20128;-60
2021/12/13 06:17:49;;;;;;;3.42;2.00;;;19.80;58.50;;;;;;4994496;28;20128;-60
2021/12/13 06:20:23;;;;;;;2.58;1.63;;;19.80;58.50;;;;;;4994468;28;20064;-60
2021/12/13 06:22:49;;;;;;;2.85;2.08;;;19.80;58.50;;;;;;4994482;28;20073;-59
2021/12/13 06:25:23;;;;;;;2.50;1.88;;;19.80;58.60;;;;;;4994411;28;20151;-60
2021/12/13 06:27:52;;;;;;;3.78;2.17;;;19.90;58.70;;;;;;4993031;28;20089;-60
2021/12/13 06:30:24;;;;;;;4.65;2.15;;;19.90;58.80;;;;;;4994252;28;20474;-59
2021/12/13 06:32:54;;;;;;;4.43;2.60;;;19.90;58.80;;;;;;4994278;28;20532;-59
2021/12/13 06:35:52;;;;;;;3.28;2.17;;;19.90;58.80;;;;;;4994361;28;20039;-59
2021/12/13 06:38:57;;;;;;;3.65;1.92;;;19.90;58.80;;;;;;4994180;28;20053;-59
2021/12/13 06:41:26;;;;;;;3.47;2.38;;;19.90;58.80;;;;;;4990275;28;20042;-59
2021/12/13 06:44:02;;;;;;;3.25;2.30;;;19.90;58.90;;;;;;4994138;28;20458;-60
2021/12/13 06:46:41;;;;;;;2.60;2.03;;;20.00;59.00;;;;;;4994074;28;20046;-60
2021/12/13 06:49:16;;;;;;;2.63;2.15;;;20.00;59.00;;;;;;4994370;28;20046;-59
2021/12/13 06:51:50;;;;;;;2.40;2.17;;;20.00;59.20;;;;;;4994567;28;20042;-59
2021/12/13 06:54:24;;;;;;;3.58;2.40;;;20.00;59.10;;;;;;4992725;28;20474;-58
2021/12/13 06:56:57;;;;;;;2.38;2.15;;;20.00;59.10;;;;;;4994081;28;20088;-59
2021/12/13 06:59:24;;;;;;;2.67;2.08;;;20.00;59.10;;;;;;4994465;28;20045;-59
2021/12/13 07:02:07;;;;;;;3.08;2.30;;;20.10;59.10;;;;;;4993880;28;20101;-60
2021/12/13 07:04:51;;;;;;;5.03;2.80;;;20.10;59.30;;;;;;4992865;28;20480;-58
2021/12/13 07:07:19;;;;;;;3.55;2.55;;;20.10;59.30;;;;;;4994021;28;20366;-60
2021/12/13 07:09:56;;;;;;;5.10;2.85;;;20.10;59.30;;;;;;4993871;28;20166;-60
2021/12/13 07:12:24;;;;;;;3.95;2.40;;;20.20;59.20;;;;;;4993909;28;20034;-60
2021/12/13 07:14:50;;;;;;;3.30;2.50;;;20.20;59.20;;;;;;4993922;28;20080;-59
2021/12/13 07:17:26;;;;;;;5.20;2.70;;;20.20;59.20;;;;;;4993807;28;20464;-60
2021/12/13 07:19:52;;;;;;;3.90;2.65;;;20.20;59.10;;;;;;4994294;28;20050;-60
2021/12/13 07:22:27;;;;;;;3.08;2.75;;;20.20;59.10;;;;;;4993755;28;20492;-60
2021/12/13 07:25:23;;;;;;;3.72;2.85;;;20.30;59.20;;;;;;4994875;28;20517;-59
2021/12/13 07:27:50;;;;;;;2.97;2.72;;;20.30;59.10;;;;;;4992398;28;20065;-60
2021/12/13 07:30:21;;;;;;;2.85;2.60;;;20.30;59.20;;;;;;4997411;28;20042;-60
2021/12/13 07:32:57;;;;;;;2.95;2.65;;;20.30;59.10;;;;;;4997401;28;20053;-60
2021/12/13 07:35:33;;;;;;;3.25;2.80;;;20.30;59.00;;;;;;4997031;28;20390;-60
2021/12/13 07:38:04;;;;;;;4.10;2.67;;;20.30;59.00;;;;;;4997319;28;20050;-60
2021/12/13 07:40:34;;;;;;;4.43;2.47;;;20.30;58.90;;;;;;4997365;28;20045;-60
2021/12/13 07:43:21;;;;;;;3.75;2.67;;;20.30;58.90;;;;;;4997150;28;20121;-60
2021/12/13 07:46:11;;;;;;;3.88;2.88;;;20.40;58.80;;;;;;4997078;28;20070;-60
2021/12/13 07:48:40;;;;;;;4.13;2.77;;;20.40;58.70;;;;;;4997592;28;20121;-60
2021/12/13 07:51:30;;;;;;;5.07;3.03;;;20.40;58.70;;;;;;4996964;28;20049;-60
2021/12/13 07:53:59;;;;;;;4.20;2.92;;;20.40;58.50;;;;;;4997443;28;20042;-60
2021/12/13 07:56:49;;;;;;;3.40;2.80;;;20.40;58.50;;;;;;4996839;28;20057;-60
2021/12/13 07:59:27;;;;;;;2.90;2.70;;;20.30;58.40;;;;;;4997408;28;20039;-60
2021/12/13 08:01:59;;;;;;;2.80;2.60;;;20.40;58.40;;;;;;4995601;28;20133;-60
2021/12/13 08:04:49;;;;;;;3.58;3.00;;;20.40;58.40;;;;;;4996257;28;20140;-60
2021/12/13 08:07:16;;;;;;;3.25;2.47;;;20.40;58.30;;;;;;4996611;28;20062;-61
2021/12/13 08:09:46;;;;;;;5.07;2.85;;;20.40;58.20;;;;;;4996619;28;20129;-61
2021/12/13 08:12:23;;;;;;;3.10;2.75;;;20.40;58.20;;;;;;4996546;28;20046;-61
2021/12/13 08:14:54;;;;;;;3.92;3.20;;;20.40;58.10;;;;;;4996649;28;20057;-59
2021/12/13 08:17:27;;;;;;;2.70;2.50;;;20.40;58.10;;;;;;4996546;28;20042;-61
2021/12/13 08:20:00;;;;;;;4.00;2.80;;;20.50;58.10;;;;;;4975695;28;20545;-60
2021/12/13 08:22:28;;;;;;;3.75;2.72;;;20.50;58.10;;;;;;4971186;28;20051;-60
2021/12/13 08:24:58;;;;;;;3.70;2.63;;;20.50;58.10;;;;;;4987708;28;20060;-60
2021/12/13 08:27:41;;;;;;;2.80;2.60;;;20.50;58.10;;;;;;4976715;28;20074;-60
2021/12/13 08:30:16;;;;;;;3.55;3.00;;;20.50;58.10;;;;;;4976857;28;20533;-60
2021/12/13 08:33:13;;;;;;;3.20;2.63;;;20.50;58.10;;;;;;4976824;28;20072;-60
2021/12/13 08:35:48;;;;;;;6.75;3.00;;;20.50;58.10;;;;;;4976401;28;20476;-60
2021/12/13 08:38:31;;;;;;;3.05;2.80;;;20.50;58.10;;;;;;4976270;28;20074;-60
2021/12/13 08:41:02;;;;;;;2.97;2.67;;;20.60;58.10;;;;;;4976000;28;20053;-60
2021/12/13 08:43:42;;;;;;;3.33;2.80;;;20.60;58.20;;;;;;4976480;28;20047;-60
2021/12/13 08:46:10;;;;;;;3.97;2.92;;;20.60;58.20;;;;;;4976483;28;20121;-60
2021/12/13 08:48:45;;;;;;;3.00;2.75;;;20.60;58.20;;;;;;4976538;28;20042;-60
2021/12/13 08:51:20;;;;;;;3.45;3.00;;;20.60;58.10;;;;;;4976338;28;20093;-60
2021/12/13 08:54:03;;;;;;;5.63;2.80;;;20.60;58.20;;;;;;4975218;28;20047;-60
2021/12/13 08:56:32;;;;;;;2.70;2.50;;;20.60;58.20;;;;;;4975368;28;20393;-60
2021/12/13 08:59:08;;;;;;;3.38;2.80;;;20.60;58.20;;;;;;4976224;28;20074;-60
2021/12/13 09:01:41;;;;;;;2.65;2.45;;;20.70;58.20;;;;;;4976845;28;20117;-60
2021/12/13 09:04:09;;;;;;;4.43;2.67;;;20.70;58.20;;;;;;4975963;28;20403;-60
2021/12/13 09:06:36;;;;;;;3.92;2.80;;;20.70;58.20;;;;;;4976042;28;20050;-60
2021/12/13 09:09:12;;;;;;;3.00;2.30;;;20.70;58.20;;;;;;4976143;28;20057;-61
2021/12/13 09:11:55;;;;;;;4.20;3.08;;;20.70;58.10;;;;;;4975733;28;20035;-60
2021/12/13 09:14:34;;;;;;;4.53;2.67;;;20.70;58.10;;;;;;4976605;28;20050;-60
2021/12/13 09:17:21;;;;;;;3.50;2.97;;;20.70;58.10;;;;;;4959907;28;20042;-59
2021/12/13 09:19:55;;;;;;;3.30;3.00;;;20.70;58.10;;;;;;4976328;28;20142;-60
2021/12/13 09:22:23;;;;;;;2.92;2.63;;;20.70;58.10;;;;;;4975833;28;20474;-60
2021/12/13 09:24:52;;;;;;;3.92;2.70;;;20.70;58.00;;;;;;4975777;28;20042;-60
2021/12/13 09:27:37;;;;;;;3.78;2.92;;;20.70;58.00;;;;;;4975461;28;20043;-60
2021/12/13 09:30:28;;;;;;;3.40;3.08;;;20.70;58.00;;;;;;4974626;28;20043;-60
2021/12/13 09:32:58;;;;;;;3.08;2.67;;;20.70;58.00;;;;;;4976262;28;20362;-60
2021/12/13 09:35:49;;;;;;;2.90;2.70;;;20.70;58.00;;;;;;4975603;28;20050;-60
2021/12/13 09:38:30;;;;;;;3.28;2.83;;;20.70;58.00;;;;;;4976367;28;20050;-59
2021/12/13 09:41:07;;;;;;;2.67;2.40;;;20.70;58.00;;;;;;4976130;28;20047;-59
2021/12/13 09:43:41;;;;;;;3.47;2.70;;;20.70;58.00;;;;;;4975514;28;20046;-60
2021/12/13 09:46:08;;;;;;;2.85;2.55;;;20.70;57.90;;;;;;4975428;28;20038;-59
2021/12/13 09:48:44;;;;;;;3.92;2.97;;;20.70;58.60;;;;;;4974527;28;20051;-59
2021/12/13 09:51:19;;;;;;;4.00;2.80;;;20.80;58.00;;;;;;4975416;28;20158;-60
2021/12/13 09:53:50;;;;;;;6.63;2.67;;;20.70;58.10;;;;;;4975824;28;20034;-59
2021/12/13 09:56:18;;;;;;;2.92;2.38;;;20.70;58.00;;;;;;4975037;28;20501;-59
2021/12/13 09:58:48;;;;;;;3.25;2.42;;;20.70;58.10;;;;;;4975442;28;20092;-60
2021/12/13 10:01:32;;;;;;;3.17;2.80;;;20.70;58.10;;;;;;4975176;28;20043;-59
2021/12/13 10:04:05;;;;;;;3.38;2.42;;;20.70;58.00;;;;;;4975768;28;20406;-59
2021/12/13 10:06:38;;;;;;;2.50;2.30;;;20.70;58.80;;;;;;4990507;28;20447;-60
2021/12/13 10:09:19;;;;;;;2.50;2.30;;;20.70;58.10;;;;;;4994500;28;20469;-60
2021/12/13 10:11:56;;;;;;;3.22;2.58;;;20.80;58.10;;;;;;4993165;28;20046;-60
2021/12/13 10:14:39;;;;;;;4.40;2.50;;;20.70;58.00;;;;;;4993704;28;20097;-59
2021/12/13 10:17:07;;;;;;;3.83;2.63;;;20.80;58.10;;;;;;4994428;28;20113;-60
2021/12/13 10:19:40;;;;;;;4.25;2.40;;;20.70;58.00;;;;;;4994533;28;20121;-60
2021/12/13 10:22:08;;;;;;;2.95;2.47;;;20.70;58.10;;;;;;4994402;28;20042;-60
2021/12/13 10:24:41;;;;;;;3.38;2.47;;;20.70;58.10;;;;;;4994309;28;20045;-60
2021/12/13 10:27:09;;;;;;;5.22;2.50;;;20.70;58.10;;;;;;4984667;28;20046;-59
2021/12/13 10:29:35;;;;;;;3.65;2.50;;;20.70;58.10;;;;;;4985278;28;20394;-60
2021/12/13 10:32:14;;;;;;;4.70;2.88;;;20.70;58.10;;;;;;4983645;28;20046;-59
2021/12/13 10:34:49;;;;;;;2.53;2.30;;;20.70;58.10;;;;;;4993933;28;20069;-60
2021/12/13 10:37:22;;;;;;;2.42;2.17;;;20.80;58.10;;;;;;4987594;28;20093;-59
2021/12/13 10:40:10;;;;;;;2.85;2.35;;;20.70;58.10;;;;;;4989976;28;20462;-59
2021/12/13 10:42:40;;;;;;;2.60;2.40;;;20.70;58.00;;;;;;4994692;28;20096;-60
2021/12/13 10:45:23;;;;;;;2.30;2.10;;;20.70;58.00;;;;;;4987927;28;20500;-59
2021/12/13 10:47:52;;;;;;;2.55;2.22;;;20.70;58.10;;;;;;4988800;28;20733;-60
2021/12/13 10:50:41;;;;;;;2.50;2.30;;;20.70;58.00;;;;;;4970913;28;20042;-60
2021/12/13 10:53:12;;;;;;;2.88;2.28;;;20.80;58.10;;;;;;4986365;28;20401;-59
2021/12/13 10:55:51;;;;;;;;;;;20.70;58.00;;;;;;4988776;28;20100;-59
2021/12/13 10:58:20;;;;;;;2.22;2.03;;;20.70;58.00;;;;;;4957997;28;19918;-60
2021/12/13 11:00:51;;;;;;;2.92;2.33;;;20.70;58.00;;;;;;4976862;28;20475;-59
2021/12/13 11:03:20;;;;;;;3.58;2.28;;;20.70;58.00;;;;;;4978993;28;20043;-59
2021/12/13 11:05:47;;;;;;;2.88;2.30;;;20.70;57.90;;;;;;4976941;28;20039;-60
2021/12/13 11:08:17;;;;;;;3.17;2.10;;;20.70;58.00;;;;;;4977937;28;20375;-60
2021/12/13 11:11:20;;;;;;;4.10;2.38;;;20.70;57.90;;;;;;4978254;28;20094;-60
2021/12/13 11:13:50;;;;;;;3.53;2.35;;;20.70;57.90;;;;;;4972610;28;20105;-59
2021/12/13 11:16:22;;;;;;;3.70;2.33;;;20.70;57.90;;;;;;4978839;28;20039;-60
2021/12/13 11:18:48;;;;;;;3.38;2.40;;;20.70;57.90;;;;;;4978398;28;20378;-60
2021/12/13 11:21:19;;;;;;;4.00;2.47;;;20.70;57.90;;;;;;4978237;28;20118;-60
2021/12/13 11:23:45;;;;;;;2.80;2.10;;;20.70;58.00;;;;;;4975187;28;20054;-60
2021/12/13 11:26:15;;;;;;;3.22;2.15;;;20.70;58.00;;;;;;4977875;28;20097;-60
2021/12/13 11:28:42;;;;;;;3.15;2.25;;;20.70;58.00;;;;;;4978107;28;20043;-60
2021/12/13 11:31:30;;;;;;;4.05;2.13;;;20.70;58.00;;;;;;4976927;28;20043;-60
2021/12/13 11:34:02;;;;;;;4.65;2.40;;;20.80;58.10;;;;;;4986521;28;20038;-60
2021/12/13 11:37:06;;;;;;;2.55;2.00;;;20.70;58.10;;;;;;4993554;28;20045;-60
2021/12/13 11:40:08;;;;;;;3.90;2.50;;;20.70;58.00;;;;;;4987274;28;20050;-60
2021/12/13 11:43:13;;;;;;;3.22;2.50;;;20.70;58.10;;;;;;4997278;28;20176;-60
2021/12/13 11:46:17;;;;;;;4.47;2.40;;;20.70;58.10;;;;;;4967459;28;20126;-60
2021/12/13 11:48:55;;;;;;;3.92;2.30;;;20.70;58.20;;;;;;4978732;28;21582;-59
2021/12/13 11:51:39;;;;;;;4.00;2.60;;;20.70;58.20;;;;;;4978045;28;20048;-60
2021/12/13 11:54:11;;;;;;;3.85;2.53;;;20.70;58.20;;;;;;4991602;28;20050;-60
2021/12/13 11:57:04;;;;;;;6.40;2.85;;;20.70;58.40;;;;;;4993652;28;20121;-60
2021/12/13 11:59:54;;;;;;;3.60;2.22;;;20.70;58.30;;;;;;4975923;28;20493;-57
2021/12/13 12:02:57;;;;;;;3.45;2.35;;;20.70;58.40;;;;;;4989961;28;20088;-60
2021/12/13 12:05:59;;;;;;;4.13;2.58;;;20.70;58.50;;;;;;4988051;28;20106;-60
2021/12/13 12:08:46;;;;;;;2.58;2.38;;;20.70;58.40;;;;;;4985627;28;20046;-59
2021/12/13 12:11:39;;;;;;;3.03;2.20;;;20.70;58.50;;;;;;4987482;28;20450;-60
2021/12/13 12:14:10;;;;;;;2.53;1.95;;;20.70;58.60;;;;;;4977366;28;20193;-59
2021/12/13 12:16:43;;;;;;;2.85;2.33;;;20.70;58.50;;;;;;4996862;28;20373;-60
2021/12/13 12:19:14;;;;;;;3.40;2.33;;;20.70;58.50;;;;;;4986898;28;20066;-60
2021/12/13 12:21:43;;;;;;;;;;;20.70;58.50;;;;;;4984476;28;20473;-60
2021/12/13 12:24:30;;;;;;;4.22;2.35;;;20.70;58.40;;;;;;4987774;28;19918;-60
2021/12/13 12:27:04;;;;;;;3.55;2.30;;;20.70;58.50;;;;;;4975116;28;20397;-60
2021/12/13 12:29:35;;;;;;;3.45;2.20;;;20.70;58.50;;;;;;4976492;28;20043;-60
2021/12/13 12:32:20;;;;;;;3.03;2.05;;;20.70;58.50;;;;;;4983779;28;20038;-60
2021/12/13 12:34:56;;;;;;;2.90;2.10;;;20.70;58.40;;;;;;4996458;28;20359;-60
2021/12/13 12:37:30;;;;;;;2.38;2.08;;;20.70;58.50;;;;;;4979549;28;20056;-57
2021/12/13 12:40:08;;;;;;;4.15;2.22;;;20.70;58.40;;;;;;4985161;28;20039;-60
2021/12/13 12:42:48;;;;;;;2.30;2.10;;;20.70;58.40;;;;;;4996883;28;20038;-60
2021/12/13 12:45:27;;;;;;;2.88;2.13;;;20.70;58.30;;;;;;4996012;28;20042;-60
2021/12/13 12:47:58;;;;;;;5.10;2.30;;;20.70;58.30;;;;;;4995982;28;20488;-60
2021/12/13 12:50:33;;;;;;;4.50;2.58;;;20.70;58.40;;;;;;4995855;28;20058;-60
2021/12/13 12:53:11;;;;;;;5.20;2.53;;;20.70;58.40;;;;;;4996379;28;20049;-60
2021/12/13 12:56:07;;;;;;;2.40;2.20;;;20.70;58.40;;;;;;4996256;28;20050;-60
2021/12/13 12:58:38;;;;;;;3.67;2.35;;;20.70;58.30;;;;;;4995385;28;20054;-60
2021/12/13 13:01:20;;;;;;;3.28;2.35;;;20.70;58.40;;;;;;4995440;28;20070;-60
2021/12/13 13:03:46;;;;;;;3.00;2.38;;;20.70;58.40;;;;;;4988046;28;20472;-60
2021/12/13 13:06:20;;;;;;;2.40;2.08;;;20.70;58.40;;;;;;4976523;28;20589;-60
2021/12/13 13:08:53;;;;;;;4.20;2.47;;;20.70;58.40;;;;;;4976126;28;20042;-60
2021/12/13 13:11:30;;;;;;;2.20;2.10;;;20.70;58.40;;;;;;4976852;28;20078;-60
2021/12/13 13:14:19;;;;;;;2.20;2.00;;;20.70;58.40;;;;;;4976067;28;20042;-60
2021/12/13 13:16:49;;;;;;;2.85;2.08;;;20.70;58.30;;;;;;4974781;28;20093;-60
2021/12/13 13:19:28;;;;;;;3.25;2.35;;;20.70;58.40;;;;;;4976278;28;20051;-59
2021/12/13 13:21:59;;;;;;;2.67;1.92;;;20.70;58.40;;;;;;4976381;28;20058;-60
2021/12/13 13:24:25;;;;;;;2.72;2.13;;;20.70;58.40;;;;;;4976273;28;20051;-60
2021/12/13 13:26:51;;;;;;;3.50;2.08;;;20.70;58.50;;;;;;4975306;28;20050;-60
2021/12/13 13:29:18;;;;;;;2.35;1.85;;;20.70;58.40;;;;;;4970998;28;20045;-60
2021/12/13 13:31:50;;;;;;;2.30;2.10;;;20.70;58.40;;;;;;4994977;28;20050;-60
2021/12/13 13:34:29;;;;;;;3.78;2.33;;;20.70;58.40;;;;;;4994841;28;20049;-60
2021/12/13 13:36:59;;;;;;;3.03;1.80;;;20.70;58.40;;;;;;4995030;28;20429;-60
2021/12/13 13:39:33;;;;;;;2.75;2.35;;;20.70;58.30;;;;;;4994535;28;20125;-60
2021/12/13 13:42:10;;;;;;;2.47;2.28;;;20.70;58.30;;;;;;4995510;28;20343;-60